createdAt,value
2023-05-19T00:01:57.301Z,100689.72
2023-05-19T00:04:02.956Z,100691.09
2023-05-19T00:06:05.050Z,100689.50
2023-05-19T00:08:10.357Z,100691.31
2023-05-19T00:10:12.485Z,100688.22
2023-05-19T00:12:14.517Z,100686.59
2023-05-19T00:14:16.381Z,100682.97
2023-05-19T00:16:18.359Z,100694.88
2023-05-19T00:18:20.671Z,100687.34
2023-05-19T00:20:22.497Z,100683.44
2023-05-19T00:22:24.115Z,100681.19
2023-05-19T00:24:25.840Z,100677.72
2023-05-19T00:26:27.457Z,100678.91
2023-05-19T00:28:29.047Z,100678.47
2023-05-19T00:30:31.064Z,100680.47
2023-05-19T00:32:33.468Z,100679.03
2023-05-19T00:34:35.047Z,100684.66
2023-05-19T00:36:36.682Z,100673.50
2023-05-19T00:38:38.901Z,100673.88
2023-05-19T00:40:40.685Z,100677.88
2023-05-19T00:42:42.455Z,100684.34
2023-05-19T00:44:44.032Z,100682.25
2023-05-19T00:46:45.642Z,100679.97
2023-05-19T00:48:47.264Z,100680.31
2023-05-19T00:50:50.860Z,100673.59
2023-05-19T00:52:52.457Z,100678.22
2023-05-19T00:54:55.413Z,100678.59
2023-05-19T00:56:58.447Z,100678.16
2023-05-19T00:59:00.901Z,100676.50
2023-05-19T01:01:04.249Z,100679.69
2023-05-19T01:03:13.106Z,100683.69
2023-05-19T01:05:14.903Z,100670.44
2023-05-19T01:07:16.629Z,100679.53
2023-05-19T01:09:18.462Z,100679.06
2023-05-19T01:11:20.064Z,100672.34
2023-05-19T01:13:21.777Z,100671.09
2023-05-19T01:15:26.868Z,100674.88
2023-05-19T01:17:59.267Z,100682.53
2023-05-19T01:20:29.283Z,100681.25
2023-05-19T01:22:55.031Z,100678.78
2023-05-19T01:25:20.929Z,100679.97
2023-05-19T01:27:34.662Z,100682.97
2023-05-19T01:29:42.017Z,100669.50
2023-05-19T01:31:47.949Z,100678.75
2023-05-19T01:33:51.822Z,100674.69
2023-05-19T01:35:55.606Z,100668.78
2023-05-19T01:37:59.771Z,100667.16
2023-05-19T01:40:01.840Z,100669.13
2023-05-19T01:42:04.304Z,100671.13
2023-05-19T01:44:06.416Z,100665.50
2023-05-19T01:46:08.462Z,100664.69
2023-05-19T01:48:11.295Z,100661.44
2023-05-19T01:50:13.183Z,100658.59
2023-05-19T01:52:14.801Z,100664.69
2023-05-19T01:54:16.357Z,100665.34
2023-05-19T01:56:27.589Z,100663.53
2023-05-19T01:58:47.040Z,100670.78
2023-05-19T02:00:51.822Z,100665.88
2023-05-19T02:03:05.733Z,100674.75
2023-05-19T02:05:32.881Z,100670.84
2023-05-19T02:07:44.472Z,100670.75
2023-05-19T02:10:03.863Z,100682.81
2023-05-19T02:12:05.496Z,100681.06
2023-05-19T02:14:21.137Z,100679.63
2023-05-19T02:16:28.677Z,100682.56
2023-05-19T02:18:32.123Z,100687.91
2023-05-19T02:20:34.051Z,100684.38
2023-05-19T02:22:36.258Z,100681.44
2023-05-19T02:24:37.938Z,100678.97
2023-05-19T02:26:39.539Z,100681.78
2023-05-19T02:28:41.068Z,100673.59
2023-05-19T02:30:42.608Z,100683.63
2023-05-19T02:32:46.820Z,100677.91
2023-05-19T02:34:48.503Z,100685.69
2023-05-19T02:36:50.645Z,100681.59
2023-05-19T02:38:52.406Z,100679.28
2023-05-19T02:40:54.040Z,100682.00
2023-05-19T02:42:55.775Z,100680.50
2023-05-19T02:44:57.506Z,100674.63
2023-05-19T02:46:59.204Z,100685.84
2023-05-19T02:49:00.844Z,100678.13
2023-05-19T02:51:02.445Z,100681.72
2023-05-19T02:53:04.448Z,100676.81
2023-05-19T02:55:06.392Z,100678.00
2023-05-19T02:57:08.059Z,100676.84
2023-05-19T02:59:09.664Z,100680.19
2023-05-19T03:01:11.094Z,100680.53
2023-05-19T03:03:13.947Z,100680.69
2023-05-19T03:05:15.761Z,100680.22
2023-05-19T03:07:17.714Z,100683.03
2023-05-19T03:09:19.348Z,100671.69
2023-05-19T03:11:21.290Z,100672.69
2023-05-19T03:13:22.867Z,100672.88
2023-05-19T03:15:24.491Z,100673.03
2023-05-19T03:17:26.267Z,100667.28
2023-05-19T03:19:27.978Z,100669.09
2023-05-19T03:21:30.465Z,100670.06
2023-05-19T03:23:32.059Z,100664.34
2023-05-19T03:25:33.627Z,100663.88
2023-05-19T03:27:35.417Z,100670.97
2023-05-19T03:29:37.265Z,100659.78
2023-05-19T03:31:38.849Z,100667.03
2023-05-19T03:33:40.569Z,100664.91
2023-05-19T03:35:42.198Z,100665.06
2023-05-19T03:37:43.758Z,100667.88
2023-05-19T03:39:45.370Z,100674.25
2023-05-19T03:41:47.057Z,100667.41
2023-05-19T03:43:48.597Z,100674.94
2023-05-19T03:45:50.292Z,100678.25
2023-05-19T03:47:51.948Z,100680.88
2023-05-19T03:49:53.567Z,100680.19
2023-05-19T03:51:55.111Z,100683.78
2023-05-19T03:53:59.656Z,100689.03
2023-05-19T03:56:01.228Z,100688.25
2023-05-19T03:58:03.397Z,100682.47
2023-05-19T04:00:06.142Z,100690.03
2023-05-19T04:02:08.300Z,100686.72
2023-05-19T04:04:10.158Z,100684.94
2023-05-19T04:06:12.941Z,100684.78
2023-05-19T04:08:14.499Z,100677.41
2023-05-19T04:10:16.110Z,100684.28
2023-05-19T04:12:17.703Z,100694.78
2023-05-19T04:14:20.298Z,100692.47
2023-05-19T04:16:22.117Z,100693.13
2023-05-19T04:18:23.784Z,100682.47
2023-05-19T04:20:25.554Z,100689.34
2023-05-19T04:22:27.149Z,100695.72
2023-05-19T04:24:31.495Z,100682.09
2023-05-19T04:26:34.468Z,100684.22
2023-05-19T04:28:39.087Z,100686.31
2023-05-19T04:30:42.548Z,100684.81
2023-05-19T04:32:44.117Z,100687.09
2023-05-19T04:34:46.143Z,100680.53
2023-05-19T04:36:48.225Z,100686.59
2023-05-19T04:38:54.689Z,100680.03
2023-05-19T04:40:56.466Z,100682.94
2023-05-19T04:42:58.199Z,100684.06
2023-05-19T04:44:59.791Z,100678.13
2023-05-19T04:47:01.429Z,100681.88
2023-05-19T04:49:03.241Z,100681.34
2023-05-19T04:51:05.117Z,100681.66
2023-05-19T04:53:07.027Z,100681.94
2023-05-19T04:55:11.311Z,100686.66
2023-05-19T04:57:12.951Z,100682.91
2023-05-19T04:59:14.573Z,100687.97
2023-05-19T05:01:16.285Z,100686.63
2023-05-19T05:03:18.753Z,100683.47
2023-05-19T05:05:20.357Z,100683.13
2023-05-19T05:07:22.787Z,100686.31
2023-05-19T05:09:24.408Z,100682.53
2023-05-19T05:11:26.759Z,100692.00
2023-05-19T05:13:28.618Z,100684.56
2023-05-19T05:15:30.499Z,100687.03
2023-05-19T05:17:32.350Z,100684.78
2023-05-19T05:19:34.521Z,100689.97
2023-05-19T05:21:36.482Z,100692.44
2023-05-19T05:23:38.321Z,100694.97
2023-05-19T05:25:40.973Z,100693.47
2023-05-19T05:27:42.645Z,100691.91
2023-05-19T05:29:44.319Z,100691.84
2023-05-19T05:31:45.851Z,100691.13
2023-05-19T05:33:47.558Z,100692.03
2023-05-19T05:35:50.573Z,100692.16
2023-05-19T05:37:52.143Z,100693.88
2023-05-19T05:39:53.680Z,100689.53
2023-05-19T05:41:55.515Z,100689.59
2023-05-19T05:43:57.112Z,100687.06
2023-05-19T05:45:58.848Z,100680.88
2023-05-19T05:48:00.921Z,100685.88
2023-05-19T05:50:02.903Z,100683.31
2023-05-19T05:52:06.529Z,100675.50
2023-05-19T05:54:12.147Z,100676.03
2023-05-19T05:56:14.395Z,100687.09
2023-05-19T05:58:17.035Z,100684.34
2023-05-19T06:00:19.320Z,100678.13
2023-05-19T06:02:21.837Z,100681.28
2023-05-19T06:04:23.500Z,100688.25
2023-05-19T06:06:25.089Z,100688.31
2023-05-19T06:08:26.690Z,100683.50
2023-05-19T06:10:29.060Z,100682.41
2023-05-19T06:12:30.723Z,100677.16
2023-05-19T06:14:32.316Z,100680.47
2023-05-19T06:16:33.981Z,100674.06
2023-05-19T06:18:35.851Z,100673.69
2023-05-19T06:20:41.412Z,100674.94
2023-05-19T06:22:43.069Z,100677.88
2023-05-19T06:24:44.683Z,100669.59
2023-05-19T06:26:46.308Z,100673.91
2023-05-19T06:28:47.873Z,100659.16
2023-05-19T06:30:49.507Z,100663.69
2023-05-19T06:32:51.122Z,100671.28
2023-05-19T06:34:55.687Z,100671.53
2023-05-19T06:36:57.260Z,100668.91
2023-05-19T06:39:00.159Z,100670.34
2023-05-19T06:41:03.521Z,100662.25
2023-05-19T06:43:05.133Z,100657.19
2023-05-19T06:45:07.381Z,100662.72
2023-05-19T06:47:09.059Z,100660.28
2023-05-19T06:49:11.312Z,100672.50
2023-05-19T06:51:12.973Z,100668.66
2023-05-19T06:53:14.549Z,100666.81
2023-05-19T06:55:16.168Z,100665.41
2023-05-19T06:57:17.762Z,100660.91
2023-05-19T06:59:21.882Z,100657.25
2023-05-19T07:01:23.559Z,100660.47
2023-05-19T07:03:25.273Z,100659.69
2023-05-19T07:05:27.070Z,100669.84
2023-05-19T07:07:28.794Z,100666.81
2023-05-19T07:09:30.360Z,100669.66
2023-05-19T07:11:31.963Z,100662.69
2023-05-19T07:13:33.637Z,100661.44
2023-05-19T07:15:35.229Z,100657.31
2023-05-19T07:17:36.876Z,100663.63
2023-05-19T07:19:38.678Z,100661.34
2023-05-19T07:21:40.284Z,100654.34
2023-05-19T07:23:41.894Z,100650.41
2023-05-19T07:25:46.438Z,100649.75
2023-05-19T07:27:48.071Z,100652.75
2023-05-19T07:29:49.617Z,100645.97
2023-05-19T07:31:57.928Z,100650.41
2023-05-19T07:33:59.753Z,100649.31
2023-05-19T07:36:01.487Z,100652.00
2023-05-19T07:38:03.916Z,100656.03
2023-05-19T07:40:09.384Z,100666.81
2023-05-19T07:42:10.920Z,100660.78
2023-05-19T07:44:12.504Z,100654.63
2023-05-19T07:46:14.175Z,100656.41
2023-05-19T07:48:18.705Z,100650.50
2023-05-19T07:50:20.634Z,100654.06
2023-05-19T07:52:22.223Z,100645.66
2023-05-19T07:54:23.772Z,100656.00
2023-05-19T07:56:25.436Z,100651.00
2023-05-19T07:58:27.080Z,100651.16
2023-05-19T08:00:28.783Z,100655.00
2023-05-19T08:02:30.514Z,100655.91
2023-05-19T08:04:32.814Z,100652.94
2023-05-19T08:06:35.219Z,100644.47
2023-05-19T08:08:36.922Z,100650.97
2023-05-19T08:10:38.547Z,100645.78
2023-05-19T08:12:40.383Z,100639.13
2023-05-19T08:14:41.995Z,100637.84
2023-05-19T08:16:45.078Z,100641.84
2023-05-19T08:18:46.694Z,100643.31
2023-05-19T08:20:48.374Z,100646.38
2023-05-19T08:22:50.261Z,100631.59
2023-05-19T08:24:51.890Z,100631.75
2023-05-19T08:26:53.655Z,100638.53
2023-05-19T08:28:55.468Z,100623.38
2023-05-19T08:30:57.141Z,100629.88
2023-05-19T08:33:02.324Z,100628.94
2023-05-19T08:35:04.382Z,100635.34
2023-05-19T08:37:06.005Z,100622.50
2023-05-19T08:39:07.659Z,100616.94
2023-05-19T08:41:09.327Z,100622.47
2023-05-19T08:43:14.045Z,100622.75
2023-05-19T08:45:15.863Z,100613.47
2023-05-19T08:47:17.932Z,100613.72
2023-05-19T08:49:25.698Z,100614.53
2023-05-19T08:51:36.761Z,100614.88
2023-05-19T08:53:44.061Z,100607.38
2023-05-19T08:56:11.006Z,100601.00
2023-05-19T08:58:13.068Z,100604.13
2023-05-19T09:00:18.221Z,100598.91
2023-05-19T09:02:20.561Z,100595.78
2023-05-19T09:04:22.555Z,100596.94
2023-05-19T09:06:25.639Z,100601.81
2023-05-19T09:08:27.700Z,100587.88
2023-05-19T09:10:29.541Z,100585.72
2023-05-19T09:12:31.609Z,100585.50
2023-05-19T09:14:33.215Z,100591.63
2023-05-19T09:16:34.894Z,100589.47
2023-05-19T09:18:40.069Z,100585.19
2023-05-19T09:20:43.749Z,100589.66
2023-05-19T09:22:47.578Z,100587.78
2023-05-19T09:24:49.501Z,100591.13
2023-05-19T09:26:51.114Z,100592.16
2023-05-19T09:28:58.068Z,100580.66
2023-05-19T09:31:04.656Z,100591.66
2023-05-19T09:33:09.924Z,100579.78
2023-05-19T09:35:13.196Z,100580.78
2023-05-19T09:37:14.942Z,100573.50
2023-05-19T09:39:17.433Z,100569.69
2023-05-19T09:41:19.781Z,100568.81
2023-05-19T09:43:21.660Z,100566.41
2023-05-19T09:45:23.265Z,100567.88
2023-05-19T09:47:24.992Z,100567.59
2023-05-19T09:49:32.696Z,100568.84
2023-05-19T09:51:37.555Z,100564.44
2023-05-19T09:53:39.515Z,100569.00
2023-05-19T09:55:42.827Z,100564.69
2023-05-19T09:57:45.386Z,100565.19
2023-05-19T09:59:47.412Z,100569.56
2023-05-19T10:01:49.314Z,100570.19
2023-05-19T10:03:52.582Z,100569.31
2023-05-19T10:05:55.004Z,100563.97
2023-05-19T10:07:56.945Z,100560.47
2023-05-19T10:10:00.097Z,100549.78
2023-05-19T10:12:03.397Z,100549.25
2023-05-19T10:14:05.510Z,100548.81
2023-05-19T10:16:09.509Z,100552.78
2023-05-19T10:18:12.265Z,100552.41
2023-05-19T10:20:17.954Z,100543.16
2023-05-19T10:22:19.504Z,100554.00
2023-05-19T10:24:21.708Z,100547.13
2023-05-19T10:26:24.509Z,100539.91
2023-05-19T10:28:34.402Z,100543.84
2023-05-19T10:30:46.474Z,100545.66
2023-05-19T10:32:52.095Z,100546.81
2023-05-19T10:35:05.889Z,100550.22
2023-05-19T10:37:24.953Z,100546.81
2023-05-19T10:39:37.680Z,100544.56
2023-05-19T10:41:53.801Z,100553.84
2023-05-19T10:44:35.079Z,100545.97
2023-05-19T10:46:37.040Z,100539.50
2023-05-19T10:48:38.609Z,100548.19
2023-05-19T10:50:40.279Z,100536.31
2023-05-19T10:52:42.005Z,100534.38
2023-05-19T10:54:47.240Z,100529.59
2023-05-19T10:56:49.023Z,100532.78
2023-05-19T10:58:50.874Z,100532.97
2023-05-19T11:01:00.938Z,100522.69
2023-05-19T11:03:18.839Z,100521.22
2023-05-19T11:05:28.798Z,100518.78
2023-05-19T11:07:30.876Z,100525.53
2023-05-19T11:09:40.066Z,100530.00
2023-05-19T11:11:49.881Z,100526.78
2023-05-19T11:13:53.111Z,100526.81
2023-05-19T11:15:56.302Z,100532.66
2023-05-19T11:18:01.349Z,100520.31
2023-05-19T11:20:04.985Z,100517.03
2023-05-19T11:22:10.900Z,100522.59
2023-05-19T11:24:39.963Z,100525.56
2023-05-19T11:26:45.631Z,100526.75
2023-05-19T11:28:48.200Z,100524.84
2023-05-19T11:30:50.816Z,100524.56
2023-05-19T11:32:54.256Z,100518.13
2023-05-19T11:34:57.277Z,100517.25
2023-05-19T11:36:59.384Z,100513.84
2023-05-19T11:39:02.543Z,100517.09
2023-05-19T11:41:04.424Z,100511.75
2023-05-19T11:43:06.260Z,100506.91
2023-05-19T11:45:08.549Z,100514.28
2023-05-19T11:47:10.727Z,100506.22
2023-05-19T11:49:12.377Z,100506.06
2023-05-19T11:51:14.109Z,100500.97
2023-05-19T11:53:22.184Z,100497.91
2023-05-19T11:55:23.807Z,100505.34
2023-05-19T11:57:25.550Z,100512.41
2023-05-19T11:59:36.061Z,100503.38
2023-05-19T12:01:38.065Z,100499.97
2023-05-19T12:03:39.906Z,100493.78
2023-05-19T12:05:47.836Z,100499.22
2023-05-19T12:07:51.579Z,100499.22
2023-05-19T12:09:55.355Z,100496.50
2023-05-19T12:11:57.135Z,100497.22
2023-05-19T12:13:59.452Z,100495.38
2023-05-19T12:16:01.890Z,100492.34
2023-05-19T12:18:03.884Z,100491.88
2023-05-19T12:20:06.717Z,100485.22
2023-05-19T12:22:08.704Z,100486.81
2023-05-19T12:24:11.036Z,100480.56
2023-05-19T12:26:13.128Z,100483.03
2023-05-19T12:28:16.411Z,100472.56
2023-05-19T12:30:18.232Z,100475.84
2023-05-19T12:32:26.978Z,100468.63
2023-05-19T12:34:28.738Z,100461.91
2023-05-19T12:36:31.993Z,100460.56
2023-05-19T12:38:37.374Z,100452.53
2023-05-19T12:40:42.255Z,100464.06
2023-05-19T12:42:48.803Z,100458.16
2023-05-19T12:44:52.584Z,100453.00
2023-05-19T12:46:54.357Z,100456.28
2023-05-19T12:48:59.618Z,100448.19
2023-05-19T12:51:01.255Z,100457.81
2023-05-19T12:53:02.907Z,100450.53
2023-05-19T12:55:06.953Z,100453.00
2023-05-19T12:57:10.997Z,100443.31
2023-05-19T12:59:54.851Z,100447.03
2023-05-19T13:01:43.091Z,100457.53
2023-05-19T13:03:46.002Z,100454.13
2023-05-19T13:05:49.805Z,100459.66
2023-05-19T13:08:11.743Z,100452.91
2023-05-19T13:10:13.477Z,100454.53
2023-05-19T13:12:15.036Z,100457.78
2023-05-19T13:14:18.714Z,100439.47
2023-05-19T13:16:20.367Z,100435.66
2023-05-19T13:18:22.010Z,100438.78
2023-05-19T13:20:26.301Z,100443.59
2023-05-19T13:22:29.242Z,100450.06
2023-05-19T13:24:30.894Z,100439.88
2023-05-19T13:26:32.487Z,100441.75
2023-05-19T13:28:34.870Z,100444.44
2023-05-19T13:30:39.010Z,100453.44
2023-05-19T13:32:40.800Z,100439.97
2023-05-19T13:34:42.362Z,100451.03
2023-05-19T13:36:48.132Z,100448.84
2023-05-19T13:38:49.864Z,100446.81
2023-05-19T13:40:51.448Z,100451.25
2023-05-19T13:42:53.279Z,100445.06
2023-05-19T13:44:56.406Z,100452.13
2023-05-19T13:46:58.142Z,100432.84
2023-05-19T13:48:59.785Z,100435.53
2023-05-19T13:51:01.404Z,100434.25
2023-05-19T13:53:03.738Z,100445.47
2023-05-19T13:55:07.075Z,100431.53
2023-05-19T13:57:08.754Z,100430.88
2023-05-19T13:59:10.372Z,100421.19
2023-05-19T14:01:15.123Z,100424.69
2023-05-19T14:03:19.608Z,100428.56
2023-05-19T14:05:21.389Z,100425.81
2023-05-19T14:07:23.017Z,100416.78
2023-05-19T14:09:24.730Z,100427.22
2023-05-19T14:11:26.410Z,100425.09
2023-05-19T14:13:34.260Z,100422.94
2023-05-19T14:15:38.214Z,100427.13
2023-05-19T14:17:40.141Z,100415.22
2023-05-19T14:19:42.101Z,100411.09
2023-05-19T14:21:43.700Z,100422.84
2023-05-19T14:23:45.372Z,100418.03
2023-05-19T14:25:47.042Z,100411.69
2023-05-19T14:27:48.621Z,100417.38
2023-05-19T14:29:50.391Z,100421.72
2023-05-19T14:31:52.558Z,100420.44
2023-05-19T14:33:57.211Z,100418.97
2023-05-19T14:36:00.301Z,100428.25
2023-05-19T14:38:01.858Z,100423.75
2023-05-19T14:42:06.107Z,100425.63
2023-05-19T14:44:07.651Z,100417.25
2023-05-19T14:46:09.362Z,100424.25
2023-05-19T14:48:11.999Z,100426.66
2023-05-19T14:50:13.638Z,100426.00
2023-05-19T14:52:15.372Z,100431.28
2023-05-19T14:54:17.060Z,100435.13
2023-05-19T14:56:18.614Z,100439.72
2023-05-19T14:58:28.851Z,100439.84
2023-05-19T15:00:31.116Z,100433.47
2023-05-19T15:02:32.822Z,100430.34
2023-05-19T15:04:36.841Z,100429.34
2023-05-19T15:06:38.529Z,100434.72
2023-05-19T15:08:41.414Z,100425.56
2023-05-19T15:10:43.036Z,100426.34
2023-05-19T15:12:44.648Z,100418.00
2023-05-19T15:14:46.745Z,100421.13
2023-05-19T15:16:48.393Z,100422.72
2023-05-19T15:18:51.577Z,100421.44
2023-05-19T15:20:53.241Z,100419.78
2023-05-19T15:22:54.797Z,100410.47
2023-05-19T15:24:56.388Z,100409.72
2023-05-19T15:26:58.019Z,100409.16
2023-05-19T15:28:59.616Z,100405.31
2023-05-19T15:31:01.358Z,100405.38
2023-05-19T15:33:03.035Z,100407.97
2023-05-19T15:35:04.983Z,100411.59
2023-05-19T15:37:06.524Z,100404.22
2023-05-19T15:39:08.126Z,100406.09
2023-05-19T15:41:10.214Z,100398.31
2023-05-19T15:43:11.826Z,100402.78
2023-05-19T15:45:13.421Z,100409.84
2023-05-19T15:47:15.002Z,100401.38
2023-05-19T15:49:17.980Z,100392.94
2023-05-19T15:51:19.575Z,100392.56
2023-05-19T15:53:21.253Z,100386.22
2023-05-19T15:55:22.840Z,100384.31
2023-05-19T15:57:24.942Z,100387.34
2023-05-19T15:59:26.559Z,100382.75
2023-05-19T16:01:28.530Z,100380.03
2023-05-19T16:03:30.494Z,100378.34
2023-05-19T16:05:32.231Z,100379.81
2023-05-19T16:07:33.848Z,100384.50
2023-05-19T16:09:35.416Z,100379.31
2023-05-19T16:11:37.052Z,100373.44
2023-05-19T16:13:38.635Z,100374.19
2023-05-19T16:15:40.594Z,100365.72
2023-05-19T16:17:42.558Z,100363.34
2023-05-19T16:19:44.230Z,100362.19
2023-05-19T16:21:45.883Z,100363.66
2023-05-19T16:23:47.479Z,100358.03
2023-05-19T16:25:49.089Z,100355.72
2023-05-19T16:27:51.507Z,100350.50
2023-05-19T16:29:53.234Z,100350.25
2023-05-19T16:31:54.842Z,100355.53
2023-05-19T16:33:56.544Z,100350.31
2023-05-19T16:35:59.883Z,100354.34
2023-05-19T16:38:01.422Z,100352.50
2023-05-19T16:40:03.236Z,100344.78
2023-05-19T16:42:05.217Z,100345.28
2023-05-19T16:44:06.774Z,100335.84
2023-05-19T16:46:09.860Z,100342.16
2023-05-19T16:48:11.581Z,100341.75
2023-05-19T16:50:13.194Z,100339.31
2023-05-19T16:52:14.844Z,100340.41
2023-05-19T16:54:16.417Z,100336.50
2023-05-19T16:56:17.972Z,100338.34
2023-05-19T16:58:19.623Z,100347.59
2023-05-19T17:00:21.249Z,100337.22
2023-05-19T17:02:22.859Z,100339.56
2023-05-19T17:04:24.492Z,100328.25
2023-05-19T17:06:26.107Z,100329.56
2023-05-19T17:08:27.987Z,100324.34
2023-05-19T17:10:29.516Z,100324.91
2023-05-19T17:12:31.149Z,100327.72
2023-05-19T17:14:32.685Z,100327.44
2023-05-19T17:16:35.780Z,100323.47
2023-05-19T17:18:37.535Z,100325.72
2023-05-19T17:20:39.199Z,100322.03
2023-05-19T17:22:41.123Z,100319.25
2023-05-19T17:24:42.785Z,100308.47
2023-05-19T17:26:44.572Z,100313.13
2023-05-19T17:28:46.136Z,100305.38
2023-05-19T17:30:47.953Z,100310.63
2023-05-19T17:32:49.840Z,100311.16
2023-05-19T17:34:51.687Z,100311.91
2023-05-19T17:36:53.302Z,100305.09
2023-05-19T17:38:54.948Z,100309.47
2023-05-19T17:41:04.575Z,100306.47
2023-05-19T17:43:08.171Z,100313.88
2023-05-19T17:45:12.398Z,100314.91
2023-05-19T17:47:14.099Z,100315.28
2023-05-19T17:49:15.776Z,100326.19
2023-05-19T17:51:17.508Z,100317.41
2023-05-19T17:53:19.432Z,100317.06
2023-05-19T17:55:21.382Z,100325.66
2023-05-19T17:57:25.880Z,100324.13
2023-05-19T17:59:27.692Z,100329.81
2023-05-19T18:01:29.622Z,100335.31
2023-05-19T18:03:31.795Z,100331.53
2023-05-19T18:05:34.210Z,100334.09
2023-05-19T18:07:39.563Z,100335.69
2023-05-19T18:09:47.756Z,100338.16
2023-05-19T18:11:49.318Z,100340.75
2023-05-19T18:13:50.891Z,100337.97
2023-05-19T18:15:52.901Z,100337.97
2023-05-19T18:17:54.603Z,100339.03
2023-05-19T18:19:56.256Z,100339.47
2023-05-19T18:21:57.857Z,100335.81
2023-05-19T18:24:02.963Z,100339.25
2023-05-19T18:26:04.553Z,100345.31
2023-05-19T18:28:06.232Z,100344.53
2023-05-19T18:30:08.177Z,100348.25
2023-05-19T18:32:10.006Z,100348.81
2023-05-19T18:34:14.019Z,100342.91
2023-05-19T18:36:16.580Z,100352.56
2023-05-19T18:38:18.282Z,100349.91
2023-05-19T18:40:19.850Z,100353.66
2023-05-19T18:42:21.957Z,100352.56
2023-05-19T18:44:23.516Z,100352.00
2023-05-19T18:46:25.293Z,100358.69
2023-05-19T18:48:27.151Z,100349.66
2023-05-19T18:50:28.718Z,100357.47
2023-05-19T18:52:31.325Z,100357.47
2023-05-19T18:54:32.924Z,100354.22
2023-05-19T18:56:35.438Z,100361.63
2023-05-19T18:58:37.000Z,100366.84
2023-05-19T19:00:38.628Z,100368.69
2023-05-19T19:02:40.273Z,100370.75
2023-05-19T19:04:41.967Z,100366.38
2023-05-19T19:06:43.945Z,100369.25
2023-05-19T19:08:45.725Z,100370.69
2023-05-19T19:10:50.376Z,100371.59
2023-05-19T19:12:52.005Z,100375.66
2023-05-19T19:14:53.727Z,100382.19
2023-05-19T19:16:55.342Z,100380.44
2023-05-19T19:18:59.299Z,100377.91
2023-05-19T19:21:02.553Z,100387.47
2023-05-19T19:23:06.504Z,100389.13
2023-05-19T19:25:08.595Z,100390.03
2023-05-19T19:27:10.514Z,100393.69
2023-05-19T19:29:12.164Z,100395.31
2023-05-19T19:31:13.812Z,100393.50
2023-05-19T19:33:15.551Z,100393.13
2023-05-19T19:35:17.214Z,100406.66
2023-05-19T19:37:19.092Z,100401.94
2023-05-19T19:39:20.778Z,100406.66
2023-05-19T19:41:22.368Z,100404.22
2023-05-19T19:43:24.053Z,100404.72
2023-05-19T19:45:25.694Z,100412.22
2023-05-19T19:47:27.536Z,100416.19
2023-05-19T19:49:29.138Z,100416.91
2023-05-19T19:51:31.627Z,100421.03
2023-05-19T19:53:33.247Z,100423.09
2023-05-19T19:55:34.885Z,100423.66
2023-05-19T19:57:36.886Z,100423.16
2023-05-19T19:59:38.473Z,100421.03
2023-05-19T20:01:40.174Z,100418.03
2023-05-19T20:03:42.009Z,100413.44
2023-05-19T20:05:44.022Z,100413.13
2023-05-19T20:07:45.648Z,100413.81
2023-05-19T20:09:49.535Z,100413.81
2023-05-19T20:11:51.098Z,100405.97
2023-05-19T20:13:53.253Z,100409.34
2023-05-19T20:15:55.140Z,100416.19
2023-05-19T20:17:56.794Z,100420.84
2023-05-19T20:19:59.899Z,100415.31
2023-05-19T20:22:01.452Z,100417.97
2023-05-19T20:24:03.055Z,100419.47
2023-05-19T20:28:11.587Z,100424.38
2023-05-19T20:30:13.135Z,100424.16
2023-05-19T20:32:14.740Z,100429.59
2023-05-19T20:34:16.381Z,100419.16
2023-05-19T20:36:17.984Z,100424.75
2023-05-19T20:38:19.603Z,100419.28
2023-05-19T20:40:21.175Z,100428.56
2023-05-19T20:42:22.792Z,100432.50
2023-05-19T20:44:24.372Z,100432.97
2023-05-19T20:46:26.236Z,100432.25
2023-05-19T20:48:27.882Z,100433.06
2023-05-19T20:50:29.657Z,100435.03
2023-05-19T20:52:32.252Z,100435.97
2023-05-19T20:54:33.846Z,100432.72
2023-05-19T20:56:35.414Z,100429.81
2023-05-19T20:58:37.609Z,100431.91
2023-05-19T21:00:39.295Z,100436.78
2023-05-19T21:02:41.046Z,100434.69
2023-05-19T21:04:42.661Z,100440.34
2023-05-19T21:06:44.266Z,100434.81
2023-05-19T21:08:46.043Z,100443.38
2023-05-19T21:10:47.622Z,100436.44
2023-05-19T21:12:49.401Z,100437.22
2023-05-19T21:14:51.837Z,100436.66
2023-05-19T21:16:56.750Z,100432.72
2023-05-19T21:18:58.501Z,100434.56
2023-05-19T21:21:02.996Z,100437.69
2023-05-19T21:23:04.848Z,100440.47
2023-05-19T21:25:06.810Z,100444.50
2023-05-19T21:27:08.386Z,100442.31
2023-05-19T21:29:10.177Z,100441.75
2023-05-19T21:31:11.846Z,100439.56
2023-05-19T21:33:13.498Z,100448.22
2023-05-19T21:35:15.200Z,100439.25
2023-05-19T21:37:17.675Z,100445.84
2023-05-19T21:39:19.354Z,100444.94
2023-05-19T21:41:21.698Z,100449.28
2023-05-19T21:43:23.356Z,100437.94
2023-05-19T21:45:24.922Z,100436.41
2023-05-19T21:47:26.540Z,100447.41
2023-05-19T21:49:28.486Z,100442.50
2023-05-19T21:51:30.056Z,100451.84
2023-05-19T21:53:32.760Z,100451.03
2023-05-19T21:55:34.345Z,100448.13
2023-05-19T21:57:35.905Z,100441.28
2023-05-19T21:59:37.464Z,100442.38
2023-05-19T22:01:42.358Z,100442.59
2023-05-19T22:03:44.961Z,100444.16
2023-05-19T22:05:53.384Z,100441.97
2023-05-19T22:07:55.074Z,100437.75
2023-05-19T22:09:56.808Z,100443.75
2023-05-19T22:11:58.406Z,100434.25
2023-05-19T22:14:00.193Z,100432.81
2023-05-19T22:16:04.459Z,100436.16
2023-05-19T22:18:06.911Z,100440.75
2023-05-19T22:20:09.514Z,100438.91
2023-05-19T22:22:14.155Z,100437.53
2023-05-19T22:24:18.518Z,100436.53
2023-05-19T22:26:20.112Z,100436.16
2023-05-19T22:28:23.787Z,100432.56
2023-05-19T22:30:25.738Z,100435.88
2023-05-19T22:32:27.373Z,100435.50
2023-05-19T22:34:31.618Z,100436.97
2023-05-19T22:36:33.265Z,100440.06
2023-05-19T22:38:34.896Z,100444.78
2023-05-19T22:40:36.693Z,100443.81
2023-05-19T22:42:38.438Z,100447.91
2023-05-19T22:44:40.053Z,100442.66
2023-05-19T22:46:44.168Z,100445.31
2023-05-19T22:48:45.821Z,100445.19
2023-05-19T22:50:47.429Z,100438.06
2023-05-19T22:52:49.085Z,100442.56
2023-05-19T22:54:50.679Z,100438.13
2023-05-19T22:56:52.715Z,100438.78
2023-05-19T22:58:54.258Z,100439.19
2023-05-19T23:00:56.184Z,100433.53
2023-05-19T23:02:58.465Z,100436.22
2023-05-19T23:05:00.195Z,100432.19
2023-05-19T23:07:02.183Z,100441.59
2023-05-19T23:09:04.532Z,100436.72
2023-05-19T23:11:06.175Z,100428.59
2023-05-19T23:13:09.572Z,100430.84
2023-05-19T23:15:11.394Z,100436.78
2023-05-19T23:17:13.138Z,100435.19
2023-05-19T23:19:15.443Z,100442.50
2023-05-19T23:21:17.166Z,100439.47
2023-05-19T23:23:18.998Z,100437.03
2023-05-19T23:25:20.659Z,100427.47
2023-05-19T23:27:22.261Z,100436.63
2023-05-19T23:29:23.890Z,100428.31